createdAt,value
2019-04-04T00:00:48.010Z,1.23
2019-04-04T00:03:16.417Z,1.07
2019-04-04T00:05:44.809Z,0.80
2019-04-04T00:08:13.230Z,1.80
2019-04-04T00:10:41.615Z,1.27
2019-04-04T00:13:11.123Z,1.00
2019-04-04T00:15:40.204Z,0.93
2019-04-04T00:18:08.633Z,1.87
2019-04-04T00:20:37.031Z,0.70
2019-04-04T00:23:06.878Z,1.97
2019-04-04T00:25:35.565Z,1.03
2019-04-04T00:28:03.983Z,2.83
2019-04-04T00:30:32.375Z,1.13
2019-04-04T00:33:00.814Z,1.03
2019-04-04T00:35:31.070Z,1.77
2019-04-04T00:37:59.407Z,1.37
2019-04-04T00:40:27.809Z,4.60
2019-04-04T00:42:56.591Z,2.07
2019-04-04T00:45:24.990Z,2.20
2019-04-04T00:47:53.398Z,1.67
2019-04-04T00:50:21.805Z,1.87
2019-04-04T00:52:50.263Z,1.57
2019-04-04T00:55:18.659Z,1.40
2019-04-04T00:57:48.234Z,3.03
2019-04-04T01:00:17.278Z,1.57
2019-04-04T01:02:45.682Z,2.10
2019-04-04T01:05:14.073Z,1.60
2019-04-04T01:07:43.433Z,1.87
2019-04-04T01:10:31.163Z,1.87
2019-04-04T01:12:59.569Z,1.67
2019-04-04T01:15:30.805Z,1.40
2019-04-04T01:17:58.096Z,1.57
2019-04-04T01:20:26.503Z,2.43
2019-04-04T01:22:56.134Z,1.70
2019-04-04T01:25:25.156Z,1.67
2019-04-04T01:27:53.602Z,4.00
2019-04-04T01:30:21.990Z,1.87
2019-04-04T01:32:50.413Z,3.27
2019-04-04T01:35:18.830Z,3.53
2019-04-04T01:37:47.221Z,2.13
2019-04-04T01:40:15.622Z,3.07
2019-04-04T01:42:44.015Z,3.00
2019-04-04T01:45:13.066Z,2.13
2019-04-04T01:47:42.183Z,3.20
2019-04-04T01:50:11.032Z,2.50
2019-04-04T01:52:39.425Z,3.40
2019-04-04T01:55:07.920Z,3.07
2019-04-04T01:57:38.511Z,2.40
2019-04-04T02:00:08.947Z,3.07
2019-04-04T02:02:37.349Z,1.93
2019-04-04T02:05:06.501Z,2.00
2019-04-04T02:07:34.915Z,2.90
2019-04-04T02:10:05.455Z,2.63
2019-04-04T02:12:34.445Z,3.13
2019-04-04T02:15:04.793Z,2.63
2019-04-04T02:17:33.193Z,7.33
2019-04-04T02:20:01.636Z,11.77
2019-04-04T02:22:31.108Z,5.57
2019-04-04T02:25:02.705Z,7.77
2019-04-04T02:27:30.672Z,2.83
2019-04-04T02:29:59.083Z,5.80
2019-04-04T02:32:28.952Z,2.60
2019-04-04T02:34:57.361Z,3.23
2019-04-04T02:37:25.758Z,3.00
2019-04-04T02:39:54.180Z,4.43
2019-04-04T02:42:22.809Z,3.50
2019-04-04T02:44:51.316Z,2.90
2019-04-04T02:47:19.747Z,2.60
2019-04-04T02:49:48.172Z,4.40
2019-04-04T02:52:16.575Z,3.57
2019-04-04T02:54:44.976Z,3.17
2019-04-04T02:57:13.376Z,4.63
2019-04-04T02:59:41.841Z,4.77
2019-04-04T03:02:10.330Z,4.60
2019-04-04T03:04:39.594Z,3.87
2019-04-04T03:07:19.912Z,4.60
2019-04-04T03:09:48.374Z,4.83
2019-04-04T03:12:16.776Z,4.70
2019-04-04T03:14:45.185Z,4.63
2019-04-04T03:17:13.579Z,4.70
2019-04-04T03:19:43.624Z,4.97
2019-04-04T03:22:12.102Z,4.90
2019-04-04T03:24:44.824Z,4.53
2019-04-04T03:27:10.646Z,5.00
2019-04-04T03:29:39.113Z,4.10
2019-04-04T03:32:13.818Z,5.27
2019-04-04T03:34:37.698Z,4.63
2019-04-04T03:37:07.833Z,4.27
2019-04-04T03:39:36.309Z,5.10
2019-04-04T03:42:08.128Z,5.60
2019-04-04T03:44:34.944Z,5.37
2019-04-04T03:47:03.364Z,5.40
2019-04-04T03:49:31.759Z,10.70
2019-04-04T03:52:00.219Z,4.83
2019-04-04T03:54:28.687Z,5.63
2019-04-04T03:56:57.107Z,4.97
2019-04-04T03:59:25.494Z,4.53
2019-04-04T04:01:53.935Z,4.73
2019-04-04T04:04:24.941Z,5.33
2019-04-04T04:06:52.453Z,5.00
2019-04-04T04:09:20.849Z,8.30
2019-04-04T04:11:49.252Z,5.43
2019-04-04T04:14:21.657Z,5.73
2019-04-04T04:17:09.220Z,5.60
2019-04-04T04:19:37.232Z,5.80
2019-04-04T04:22:05.632Z,5.27
2019-04-04T04:24:34.027Z,5.67
2019-04-04T04:27:02.427Z,6.03
2019-04-04T04:29:30.889Z,6.27
2019-04-04T04:31:59.316Z,5.83
2019-04-04T04:34:27.708Z,6.83
2019-04-04T04:36:56.132Z,6.70
2019-04-04T04:39:24.518Z,5.97
2019-04-04T04:41:54.121Z,6.70
2019-04-04T04:44:22.900Z,5.80
2019-04-04T04:46:51.317Z,6.83
2019-04-04T04:49:23.175Z,6.00
2019-04-04T04:51:49.864Z,7.73
2019-04-04T04:54:18.256Z,6.63
2019-04-04T04:56:46.660Z,8.10
2019-04-04T04:59:15.063Z,7.90
2019-04-04T05:01:43.498Z,6.50
2019-04-04T05:04:11.871Z,7.87
2019-04-04T05:06:40.291Z,7.53
2019-04-04T05:09:08.678Z,8.17
2019-04-04T05:11:37.105Z,11.30
2019-04-04T05:14:05.504Z,8.80
2019-04-04T05:16:33.922Z,8.10
2019-04-04T05:19:02.340Z,9.70
2019-04-04T05:21:33.839Z,8.03
2019-04-04T05:24:00.872Z,7.37
2019-04-04T05:26:29.288Z,7.80
2019-04-04T05:29:17.023Z,12.43
2019-04-04T05:31:45.418Z,8.50
2019-04-04T05:34:13.819Z,10.30
2019-04-04T05:36:42.248Z,13.37
2019-04-04T05:39:10.701Z,13.10
2019-04-04T05:41:39.122Z,11.13
2019-04-04T05:44:09.971Z,15.00
2019-04-04T05:46:37.660Z,16.70
2019-04-04T05:49:08.133Z,15.70
2019-04-04T05:51:36.415Z,14.50
2019-04-04T05:54:07.349Z,19.00
2019-04-04T05:56:35.368Z,19.07
2019-04-04T05:59:03.757Z,18.47
2019-04-04T06:01:34.881Z,20.80
2019-04-04T06:04:03.926Z,19.90
2019-04-04T06:06:33.377Z,19.60
2019-04-04T06:09:04.065Z,25.03
2019-04-04T06:11:32.676Z,21.17
2019-04-04T06:14:01.067Z,23.00
2019-04-04T06:16:29.473Z,24.67
2019-04-04T06:18:57.869Z,25.80
2019-04-04T06:21:26.265Z,22.00
2019-04-04T06:23:55.951Z,29.80
2019-04-04T06:26:24.977Z,25.57
2019-04-04T06:28:53.394Z,26.57
2019-04-04T06:31:21.795Z,24.67
2019-04-04T06:33:50.214Z,25.10
2019-04-04T06:36:18.611Z,26.77
2019-04-04T06:38:49.682Z,27.37
2019-04-04T06:41:17.137Z,27.70
2019-04-04T06:43:45.551Z,24.93
2019-04-04T06:46:13.986Z,25.83
2019-04-04T06:48:42.482Z,31.47
2019-04-04T06:51:13.876Z,28.43
2019-04-04T06:53:40.997Z,33.40
2019-04-04T06:56:09.404Z,34.70
2019-04-04T06:58:39.963Z,32.67
2019-04-04T07:01:10.919Z,35.63
2019-04-04T07:03:38.088Z,32.93
2019-04-04T07:06:08.061Z,30.13
2019-04-04T07:08:36.629Z,35.00
2019-04-04T07:11:15.508Z,34.73
2019-04-04T07:13:42.414Z,34.93
2019-04-04T07:16:07.735Z,35.43
2019-04-04T07:18:35.513Z,32.90
2019-04-04T07:21:03.901Z,32.10
2019-04-04T07:23:32.334Z,33.30
2019-04-04T07:26:00.735Z,31.30
2019-04-04T07:28:30.837Z,31.73
2019-04-04T07:31:01.365Z,38.67
2019-04-04T07:33:29.426Z,33.87
2019-04-04T07:35:57.836Z,30.93
2019-04-04T07:38:26.618Z,35.37
2019-04-04T07:40:56.383Z,32.23
2019-04-04T07:43:24.812Z,28.20
2019-04-04T07:45:55.275Z,27.50
2019-04-04T07:48:23.337Z,32.40
2019-04-04T07:50:51.765Z,31.27
2019-04-04T07:53:20.171Z,35.07
2019-04-04T07:55:48.579Z,27.97
2019-04-04T07:58:16.997Z,25.77
2019-04-04T08:00:45.459Z,30.43
2019-04-04T08:03:13.865Z,28.23
2019-04-04T08:05:42.272Z,29.63
2019-04-04T08:08:10.691Z,31.00
2019-04-04T08:10:39.100Z,26.33
2019-04-04T08:13:07.580Z,29.10
2019-04-04T08:15:36.117Z,24.97
2019-04-04T08:18:04.734Z,33.70
2019-04-04T08:20:33.477Z,36.73
2019-04-04T08:23:01.985Z,29.57
2019-04-04T08:25:30.369Z,28.70
2019-04-04T08:27:58.849Z,32.47
2019-04-04T08:30:27.326Z,28.10
2019-04-04T08:32:55.719Z,26.67
2019-04-04T08:35:24.129Z,25.70
2019-04-04T08:37:52.519Z,25.23
2019-04-04T08:40:20.929Z,22.57
2019-04-04T08:42:49.402Z,24.40
2019-04-04T08:45:17.844Z,21.27
2019-04-04T08:47:47.217Z,24.37
2019-04-04T08:50:15.715Z,20.80
2019-04-04T08:52:44.192Z,20.70
2019-04-04T08:55:12.680Z,19.20
2019-04-04T08:57:41.065Z,21.77
2019-04-04T09:00:10.119Z,19.13
2019-04-04T09:02:38.583Z,16.33
2019-04-04T09:05:12.274Z,16.47
2019-04-04T09:07:37.670Z,14.70
2019-04-04T09:10:07.740Z,15.67
2019-04-04T09:12:36.173Z,15.60
2019-04-04T09:15:06.627Z,15.03
2019-04-04T09:17:35.043Z,19.13
2019-04-04T09:20:09.581Z,17.83
2019-04-04T09:22:37.367Z,17.30
2019-04-04T09:25:10.454Z,18.30
2019-04-04T09:27:38.274Z,18.93
2019-04-04T09:30:08.802Z,18.70
2019-04-04T09:32:37.270Z,20.47
2019-04-04T09:35:07.410Z,18.97
2019-04-04T09:37:35.810Z,21.03
2019-04-04T09:40:08.906Z,15.83
2019-04-04T09:42:37.317Z,18.30
2019-04-04T09:45:09.716Z,19.70
2019-04-04T09:47:38.113Z,22.13
2019-04-04T09:50:07.667Z,24.40
2019-04-04T09:52:36.062Z,22.50
2019-04-04T09:55:06.913Z,18.70
2019-04-04T09:57:35.297Z,20.40
2019-04-04T10:00:15.073Z,18.63
2019-04-04T10:02:43.530Z,19.40
2019-04-04T10:05:12.907Z,20.20
2019-04-04T10:07:41.319Z,16.47
2019-04-04T10:10:10.371Z,16.23
2019-04-04T10:12:38.783Z,18.83
2019-04-04T10:15:07.821Z,18.70
2019-04-04T10:17:36.548Z,16.87
2019-04-04T10:20:08.599Z,17.37
2019-04-04T10:22:37.009Z,16.87
2019-04-04T10:25:06.655Z,17.47
2019-04-04T10:27:35.129Z,16.57
2019-04-04T10:30:05.450Z,21.50
2019-04-04T10:32:33.846Z,18.60
2019-04-04T10:35:02.285Z,19.70
2019-04-04T10:37:30.685Z,21.03
2019-04-04T10:39:59.112Z,19.40
2019-04-04T10:42:27.517Z,19.30
2019-04-04T10:44:55.899Z,16.80
2019-04-04T10:47:24.315Z,19.47
2019-04-04T10:49:52.711Z,20.67
2019-04-04T10:52:21.138Z,17.90
2019-04-04T10:54:49.533Z,18.00
2019-04-04T10:57:17.962Z,17.40
2019-04-04T10:59:46.355Z,20.50
2019-04-04T11:02:14.780Z,21.23
2019-04-04T11:04:43.166Z,20.83
2019-04-04T11:07:11.588Z,21.37
2019-04-04T11:09:42.086Z,23.50
2019-04-04T11:12:10.218Z,19.47
2019-04-04T11:14:38.625Z,24.93
2019-04-04T11:17:07.030Z,23.30
2019-04-04T11:19:35.439Z,21.63
2019-04-04T11:22:03.894Z,20.03
2019-04-04T11:24:32.343Z,19.93
2019-04-04T11:27:00.750Z,25.80
2019-04-04T11:29:48.490Z,20.73
2019-04-04T11:32:16.912Z,26.57
2019-04-04T11:35:06.005Z,19.07
2019-04-04T11:37:34.418Z,16.00
2019-04-04T11:40:22.163Z,12.43
2019-04-04T11:42:50.592Z,14.07
2019-04-04T11:45:18.976Z,12.53
2019-04-04T11:47:47.383Z,11.23
2019-04-04T11:50:15.852Z,13.70
2019-04-04T11:52:44.269Z,11.10
2019-04-04T11:55:12.799Z,10.70
2019-04-04T11:57:41.205Z,11.43
2019-04-04T12:00:11.699Z,12.10
2019-04-04T12:02:40.100Z,15.67
2019-04-04T12:05:09.029Z,13.20
2019-04-04T12:07:38.553Z,12.23
2019-04-04T12:10:08.212Z,11.33
2019-04-04T12:12:36.755Z,14.63
2019-04-04T12:15:08.450Z,11.43
2019-04-04T12:17:36.851Z,11.70
2019-04-04T12:20:07.092Z,10.07
2019-04-04T12:22:35.494Z,10.63
2019-04-04T12:25:04.931Z,11.17
2019-04-04T12:27:33.681Z,11.70
2019-04-04T12:30:02.066Z,11.17
2019-04-04T12:32:30.470Z,10.83
2019-04-04T12:34:58.873Z,12.17
2019-04-04T12:37:27.301Z,12.00
2019-04-04T12:39:55.681Z,10.00
2019-04-04T12:42:24.092Z,9.00
2019-04-04T12:44:52.473Z,10.33
2019-04-04T12:47:20.880Z,9.63
2019-04-04T12:49:49.274Z,11.30
2019-04-04T12:52:17.687Z,8.33
2019-04-04T12:54:46.083Z,7.30
2019-04-04T12:57:14.506Z,9.43
2019-04-04T12:59:42.892Z,8.93
2019-04-04T13:02:11.403Z,8.53
2019-04-04T13:04:39.834Z,7.03
2019-04-04T13:07:08.312Z,8.67
2019-04-04T13:09:36.758Z,7.73
2019-04-04T13:12:05.305Z,8.80
2019-04-04T13:14:33.703Z,6.50
2019-04-04T13:17:02.115Z,5.00
2019-04-04T13:19:30.587Z,5.67
2019-04-04T13:21:59.003Z,6.13
2019-04-04T13:24:27.396Z,6.70
2019-04-04T13:26:55.810Z,7.40
2019-04-04T13:29:24.200Z,4.47
2019-04-04T13:31:52.611Z,4.90
2019-04-04T13:34:21.007Z,5.67
2019-04-04T13:36:49.411Z,3.73
2019-04-04T13:39:17.816Z,4.27
2019-04-04T13:41:46.222Z,3.90
2019-04-04T13:44:14.651Z,4.63
2019-04-04T13:46:43.069Z,3.60
2019-04-04T13:49:11.540Z,4.23
2019-04-04T13:51:39.971Z,4.83
2019-04-04T13:54:08.346Z,3.73
2019-04-04T13:56:36.757Z,4.47
2019-04-04T13:59:05.939Z,5.20
2019-04-04T14:01:34.730Z,4.80
2019-04-04T14:04:03.148Z,4.97
2019-04-04T14:06:31.533Z,5.20
2019-04-04T14:08:59.935Z,6.07
2019-04-04T14:11:29.290Z,5.20
2019-04-04T14:13:58.892Z,5.70
2019-04-04T14:16:27.458Z,6.20
2019-04-04T14:18:55.872Z,6.40
2019-04-04T14:21:24.271Z,5.50
2019-04-04T14:23:53.122Z,5.30
2019-04-04T14:26:21.833Z,6.23
2019-04-04T14:28:50.243Z,6.97
2019-04-04T14:31:18.635Z,6.63
2019-04-04T14:33:47.042Z,6.77
2019-04-04T14:36:15.438Z,5.80
2019-04-04T14:38:43.848Z,5.90
2019-04-04T14:41:12.278Z,5.63
2019-04-04T14:43:40.756Z,5.93
2019-04-04T14:46:09.125Z,5.97
2019-04-04T14:48:37.529Z,5.87
2019-04-04T14:51:05.931Z,6.30
2019-04-04T14:53:34.327Z,5.93
2019-04-04T14:56:02.727Z,6.53
2019-04-04T14:58:31.180Z,5.73
2019-04-04T15:00:59.653Z,5.10
2019-04-04T15:03:47.386Z,5.07
2019-04-04T15:06:16.130Z,4.60
2019-04-04T15:08:44.535Z,5.07
2019-04-04T15:11:23.395Z,5.23
2019-04-04T15:13:43.074Z,5.30
2019-04-04T15:16:12.917Z,6.50
2019-04-04T15:18:41.463Z,4.93
2019-04-04T15:21:10.895Z,5.80
2019-04-04T15:23:39.296Z,5.10
2019-04-04T15:26:09.809Z,4.17
2019-04-04T15:28:37.898Z,3.80
2019-04-04T15:31:06.425Z,3.67
2019-04-04T15:33:34.825Z,5.60
2019-04-04T15:36:03.305Z,6.67
2019-04-04T15:38:31.714Z,4.27
2019-04-04T15:41:00.107Z,3.67
2019-04-04T15:43:28.527Z,3.03
2019-04-04T15:45:56.929Z,3.90
2019-04-04T15:48:25.322Z,2.73
2019-04-04T15:50:53.746Z,3.83
2019-04-04T15:53:22.130Z,4.03
2019-04-04T15:55:50.531Z,3.20
2019-04-04T15:58:18.967Z,2.90
2019-04-04T16:00:47.439Z,2.37
2019-04-04T16:03:15.861Z,2.40
2019-04-04T16:05:44.235Z,2.63
2019-04-04T16:08:12.696Z,3.60
2019-04-04T16:10:41.086Z,2.70
2019-04-04T16:13:09.478Z,3.37
2019-04-04T16:15:37.877Z,2.90
2019-04-04T16:18:06.271Z,2.67
2019-04-04T16:20:34.675Z,2.30
2019-04-04T16:23:03.073Z,2.57
2019-04-04T16:25:31.498Z,1.80
2019-04-04T16:27:59.925Z,1.37
2019-04-04T16:30:28.328Z,1.90
2019-04-04T16:32:56.729Z,2.30
2019-04-04T16:35:25.128Z,2.23
2019-04-04T16:37:53.542Z,1.77
2019-04-04T16:40:22.191Z,2.43
2019-04-04T16:42:50.579Z,2.83
2019-04-04T16:45:18.984Z,1.90
2019-04-04T16:47:47.361Z,1.87
2019-04-04T16:50:15.913Z,2.13
2019-04-04T16:52:44.295Z,2.20
2019-04-04T16:55:13.034Z,2.97
2019-04-04T16:57:43.299Z,3.10
2019-04-04T17:00:13.199Z,3.10
2019-04-04T17:02:41.583Z,3.70
2019-04-04T17:05:11.139Z,2.47
2019-04-04T17:07:41.666Z,5.70
2019-04-04T17:10:10.406Z,5.10
2019-04-04T17:12:38.810Z,14.93
2019-04-04T17:15:07.957Z,20.90
2019-04-04T17:17:36.341Z,2.47
2019-04-04T17:20:08.095Z,2.97
2019-04-04T17:22:36.638Z,3.30
2019-04-04T17:25:06.469Z,3.60
2019-04-04T17:27:37.057Z,3.30
2019-04-04T17:30:06.532Z,2.70
2019-04-04T17:32:35.178Z,4.30
2019-04-04T17:35:05.351Z,3.67
2019-04-04T17:37:33.746Z,3.40
2019-04-04T17:40:02.399Z,4.37
2019-04-04T17:42:32.947Z,3.93
2019-04-04T17:45:02.314Z,5.40
2019-04-04T17:47:31.695Z,11.13
2019-04-04T17:50:00.718Z,3.63
2019-04-04T17:52:29.144Z,2.47
2019-04-04T17:54:57.560Z,2.23
2019-04-04T17:57:25.964Z,2.27
2019-04-04T17:59:54.369Z,2.40
2019-04-04T18:02:22.767Z,2.20
2019-04-04T18:04:51.168Z,3.20
2019-04-04T18:07:19.618Z,1.80
2019-04-04T18:09:48.044Z,2.30
2019-04-04T18:12:17.020Z,1.57
2019-04-04T18:14:45.628Z,1.47
2019-04-04T18:17:14.023Z,1.40
2019-04-04T18:19:42.419Z,2.30
2019-04-04T18:22:11.781Z,2.97
2019-04-04T18:24:41.076Z,3.57
2019-04-04T18:27:09.479Z,1.77
2019-04-04T18:29:38.837Z,2.17
2019-04-04T18:32:07.262Z,2.40
2019-04-04T18:34:35.932Z,1.60
2019-04-04T18:37:05.848Z,1.10
2019-04-04T18:39:34.302Z,1.60
2019-04-04T18:42:03.452Z,2.03
2019-04-04T18:44:33.825Z,2.10
2019-04-04T18:47:01.994Z,2.73
2019-04-04T18:49:30.391Z,1.80
2019-04-04T18:51:58.813Z,3.23
2019-04-04T18:54:27.262Z,2.43
2019-04-04T18:56:55.701Z,2.40
2019-04-04T18:59:24.092Z,2.87
2019-04-04T19:01:52.505Z,2.20
2019-04-04T19:04:40.244Z,2.70
2019-04-04T19:07:08.990Z,1.53
2019-04-04T19:09:37.393Z,1.53
2019-04-04T19:12:05.889Z,1.60
2019-04-04T19:14:34.283Z,3.30
2019-04-04T19:17:22.035Z,2.07
2019-04-04T19:19:50.414Z,3.63
2019-04-04T19:22:18.839Z,1.50
2019-04-04T19:24:47.240Z,2.00
2019-04-04T19:27:15.647Z,2.70
2019-04-04T19:29:44.054Z,3.77
2019-04-04T19:32:18.307Z,1.90
2019-04-04T19:34:46.709Z,2.63
2019-04-04T19:37:15.115Z,4.53
2019-04-04T19:39:43.506Z,2.43
2019-04-04T19:42:11.909Z,4.67
2019-04-04T19:44:52.343Z,3.10
2019-04-04T19:47:10.508Z,5.37
2019-04-04T19:49:38.907Z,3.20
2019-04-04T19:52:07.447Z,2.97
2019-04-04T19:54:35.843Z,2.30
2019-04-04T19:57:04.337Z,2.37
2019-04-04T19:59:32.726Z,2.97
2019-04-04T20:02:01.128Z,2.40
2019-04-04T20:04:29.531Z,2.47
2019-04-04T20:07:17.283Z,4.20
2019-04-04T20:09:45.679Z,2.77
2019-04-04T20:12:14.079Z,3.37
2019-04-04T20:14:42.492Z,2.77
2019-04-04T20:17:10.913Z,3.00
2019-04-04T20:19:39.298Z,3.30
2019-04-04T20:22:07.698Z,2.53
2019-04-04T20:24:36.086Z,8.00
2019-04-04T20:27:04.496Z,7.17
2019-04-04T20:29:32.899Z,17.03
2019-04-04T20:32:01.316Z,8.53
2019-04-04T20:34:29.712Z,4.70
2019-04-04T20:36:58.128Z,3.57
2019-04-04T20:39:26.507Z,4.07
2019-04-04T20:41:54.907Z,4.00
2019-04-04T20:44:23.298Z,4.27
2019-04-04T20:46:51.707Z,4.70
2019-04-04T20:49:20.102Z,4.13
2019-04-04T20:51:48.504Z,5.70
2019-04-04T20:54:16.911Z,10.03
2019-04-04T20:56:45.319Z,4.87
2019-04-04T20:59:13.712Z,4.53
2019-04-04T21:01:42.130Z,20.07
2019-04-04T21:04:10.537Z,5.80
2019-04-04T21:06:38.935Z,6.73
2019-04-04T21:09:07.917Z,10.37
2019-04-04T21:11:36.377Z,7.57
2019-04-04T21:14:05.273Z,5.67
2019-04-04T21:16:33.657Z,5.90
2019-04-04T21:19:03.093Z,5.00
2019-04-04T21:21:31.489Z,5.03
2019-04-04T21:23:59.886Z,5.60
2019-04-04T21:26:28.289Z,8.37
2019-04-04T21:29:16.035Z,6.80
2019-04-04T21:31:44.442Z,6.80
2019-04-04T21:34:12.859Z,5.00
2019-04-04T21:36:41.242Z,4.90
2019-04-04T21:39:29.871Z,5.50
2019-04-04T21:41:58.464Z,5.50
2019-04-04T21:44:26.906Z,5.70
2019-04-04T21:46:55.311Z,4.67
2019-04-04T21:49:23.805Z,5.17
2019-04-04T21:51:52.192Z,5.60
2019-04-04T21:54:20.618Z,6.33
2019-04-04T21:56:49.015Z,6.23
2019-04-04T21:59:17.455Z,5.90
2019-04-04T22:01:46.006Z,7.40
2019-04-04T22:07:43.612Z,5.73
2019-04-04T22:10:14.119Z,5.27
2019-04-04T22:12:42.674Z,5.73
2019-04-04T22:15:11.489Z,7.17
2019-04-04T22:17:39.898Z,7.90
2019-04-04T22:20:08.421Z,6.77
2019-04-04T22:22:36.823Z,4.93
2019-04-04T22:25:08.140Z,5.47
2019-04-04T22:27:55.927Z,7.40
2019-04-04T22:30:24.330Z,5.67
2019-04-04T22:32:53.320Z,4.63
2019-04-04T22:35:21.707Z,5.70
2019-04-04T22:37:50.110Z,5.73
2019-04-04T22:40:18.493Z,5.73
2019-04-04T22:42:46.979Z,6.70
2019-04-04T22:45:15.441Z,6.10
2019-04-04T22:47:43.844Z,6.33
2019-04-04T22:50:12.303Z,7.97
2019-04-04T22:52:40.711Z,8.20
2019-04-04T22:55:09.256Z,7.10
2019-04-04T22:57:37.659Z,8.37
2019-04-04T23:00:11.403Z,7.20
2019-04-04T23:02:39.800Z,8.83
2019-04-04T23:05:08.344Z,7.80
2019-04-04T23:07:37.076Z,9.30
2019-04-04T23:10:08.878Z,8.83
2019-04-04T23:12:37.550Z,9.90
2019-04-04T23:15:08.365Z,8.83
2019-04-04T23:17:36.761Z,9.97
2019-04-04T23:20:09.645Z,9.27
2019-04-04T23:22:57.395Z,8.40
2019-04-04T23:25:25.812Z,9.10
2019-04-04T23:27:54.204Z,10.70
2019-04-04T23:30:22.695Z,9.50
2019-04-04T23:32:51.087Z,11.40
2019-04-04T23:35:19.558Z,9.47
2019-04-04T23:37:47.946Z,9.00
2019-04-04T23:40:16.342Z,9.33
2019-04-04T23:42:44.747Z,9.43
2019-04-04T23:45:13.250Z,9.53
2019-04-04T23:47:43.131Z,8.87
2019-04-04T23:50:12.121Z,10.70
2019-04-04T23:52:40.591Z,9.40
2019-04-04T23:55:09.335Z,8.40
2019-04-04T23:57:57.376Z,9.00
